sensor_id;sensor_type;location;lat;lon;timestamp;pressure;altitude;pressure_sealevel;temperature;humidity
76766;BME280;65707;52.362;6.588;2023-07-29T00:01:08;100713.91;;;19.98;81.67
76766;BME280;65707;52.362;6.588;2023-07-29T00:03:35;100714.00;;;19.92;82.18
76766;BME280;65707;52.362;6.588;2023-07-29T00:06:02;100713.34;;;19.96;81.73
76766;BME280;65707;52.362;6.588;2023-07-29T00:08:30;100710.00;;;19.94;82.07
76766;BME280;65707;52.362;6.588;2023-07-29T00:10:57;100711.19;;;19.98;81.93
76766;BME280;65707;52.362;6.588;2023-07-29T00:13:24;100696.34;;;19.83;82.40
76766;BME280;65707;52.362;6.588;2023-07-29T00:15:53;100693.84;;;19.81;82.06
76766;BME280;65707;52.362;6.588;2023-07-29T00:18:21;100690.06;;;19.82;82.64
76766;BME280;65707;52.362;6.588;2023-07-29T00:20:48;100693.63;;;19.83;82.13
76766;BME280;65707;52.362;6.588;2023-07-29T00:23:16;100693.84;;;19.81;82.49
76766;BME280;65707;52.362;6.588;2023-07-29T00:25:46;100690.91;;;19.83;82.75
76766;BME280;65707;52.362;6.588;2023-07-29T00:28:13;100694.50;;;19.95;81.89
76766;BME280;65707;52.362;6.588;2023-07-29T00:30:40;100688.78;;;19.85;82.27
76766;BME280;65707;52.362;6.588;2023-07-29T00:33:06;100691.88;;;19.88;82.35
76766;BME280;65707;52.362;6.588;2023-07-29T00:35:34;100694.56;;;19.77;82.46
76766;BME280;65707;52.362;6.588;2023-07-29T00:38:01;100700.00;;;19.77;82.25
76766;BME280;65707;52.362;6.588;2023-07-29T00:40:28;100700.38;;;19.92;82.33
76766;BME280;65707;52.362;6.588;2023-07-29T00:42:57;100686.69;;;19.98;82.04
76766;BME280;65707;52.362;6.588;2023-07-29T00:45:25;100693.81;;;19.99;81.74
76766;BME280;65707;52.362;6.588;2023-07-29T00:47:55;100683.25;;;20.03;81.42
76766;BME280;65707;52.362;6.588;2023-07-29T00:50:22;100690.94;;;20.06;81.35
76766;BME280;65707;52.362;6.588;2023-07-29T00:52:49;100682.19;;;20.04;81.52
76766;BME280;65707;52.362;6.588;2023-07-29T00:55:17;100678.25;;;20.00;81.66
76766;BME280;65707;52.362;6.588;2023-07-29T00:57:44;100678.88;;;20.02;81.34
76766;BME280;65707;52.362;6.588;2023-07-29T01:00:15;100680.16;;;19.88;81.52
76766;BME280;65707;52.362;6.588;2023-07-29T01:02:42;100684.56;;;20.00;81.34
76766;BME280;65707;52.362;6.588;2023-07-29T01:05:11;100682.09;;;20.11;81.00
76766;BME280;65707;52.362;6.588;2023-07-29T01:07:46;100687.16;;;19.95;81.30
76766;BME280;65707;52.362;6.588;2023-07-29T01:10:26;100673.50;;;19.84;81.38
76766;BME280;65707;52.362;6.588;2023-07-29T01:13:03;100675.63;;;19.82;82.13
76766;BME280;65707;52.362;6.588;2023-07-29T01:15:40;100670.31;;;19.87;81.55
76766;BME280;65707;52.362;6.588;2023-07-29T01:18:17;100674.56;;;19.83;81.58
76766;BME280;65707;52.362;6.588;2023-07-29T01:20:47;100668.25;;;19.71;81.96
76766;BME280;65707;52.362;6.588;2023-07-29T01:23:15;100658.53;;;19.63;81.89
76766;BME280;65707;52.362;6.588;2023-07-29T01:25:44;100664.47;;;19.72;81.84
76766;BME280;65707;52.362;6.588;2023-07-29T01:28:11;100668.97;;;19.66;81.84
76766;BME280;65707;52.362;6.588;2023-07-29T01:30:39;100663.31;;;19.50;82.19
76766;BME280;65707;52.362;6.588;2023-07-29T01:33:12;100671.47;;;19.50;82.39
76766;BME280;65707;52.362;6.588;2023-07-29T01:35:44;100668.63;;;19.45;82.35
76766;BME280;65707;52.362;6.588;2023-07-29T01:38:17;100682.91;;;19.40;82.66
76766;BME280;65707;52.362;6.588;2023-07-29T01:40:48;100676.75;;;19.33;82.87
76766;BME280;65707;52.362;6.588;2023-07-29T01:43:17;100670.13;;;19.23;83.18
76766;BME280;65707;52.362;6.588;2023-07-29T01:45:48;100672.28;;;19.21;83.45
76766;BME280;65707;52.362;6.588;2023-07-29T01:48:16;100668.88;;;19.25;83.52
76766;BME280;65707;52.362;6.588;2023-07-29T01:50:43;100675.38;;;19.24;83.10
76766;BME280;65707;52.362;6.588;2023-07-29T01:53:09;100664.41;;;19.13;83.85
76766;BME280;65707;52.362;6.588;2023-07-29T01:55:36;100658.16;;;19.30;82.79
76766;BME280;65707;52.362;6.588;2023-07-29T01:58:04;100654.59;;;19.30;82.98
76766;BME280;65707;52.362;6.588;2023-07-29T02:00:31;100659.84;;;19.25;83.38
76766;BME280;65707;52.362;6.588;2023-07-29T02:02:58;100661.22;;;19.34;83.09
76766;BME280;65707;52.362;6.588;2023-07-29T02:05:24;100674.25;;;19.32;82.65
76766;BME280;65707;52.362;6.588;2023-07-29T02:07:51;100666.84;;;19.21;82.65
76766;BME280;65707;52.362;6.588;2023-07-29T02:10:18;100658.53;;;19.16;82.95
76766;BME280;65707;52.362;6.588;2023-07-29T02:12:44;100650.59;;;19.14;82.80
76766;BME280;65707;52.362;6.588;2023-07-29T02:15:13;100641.34;;;19.15;83.55
76766;BME280;65707;52.362;6.588;2023-07-29T02:17:41;100629.56;;;19.21;82.92
76766;BME280;65707;52.362;6.588;2023-07-29T02:20:09;100637.00;;;19.14;83.32
76766;BME280;65707;52.362;6.588;2023-07-29T02:22:36;100624.94;;;19.22;83.33
76766;BME280;65707;52.362;6.588;2023-07-29T02:25:04;100629.78;;;19.20;83.71
76766;BME280;65707;52.362;6.588;2023-07-29T02:27:31;100634.09;;;19.27;83.28
76766;BME280;65707;52.362;6.588;2023-07-29T02:29:58;100640.38;;;19.28;82.97
76766;BME280;65707;52.362;6.588;2023-07-29T02:32:26;100639.16;;;19.24;82.63
76766;BME280;65707;52.362;6.588;2023-07-29T02:34:53;100647.94;;;19.26;81.88
76766;BME280;65707;52.362;6.588;2023-07-29T02:37:20;100634.88;;;19.16;82.00
76766;BME280;65707;52.362;6.588;2023-07-29T02:39:47;100653.53;;;19.13;82.29
76766;BME280;65707;52.362;6.588;2023-07-29T02:42:14;100652.47;;;19.14;82.85
76766;BME280;65707;52.362;6.588;2023-07-29T02:44:41;100651.97;;;19.05;82.83
76766;BME280;65707;52.362;6.588;2023-07-29T02:47:07;100641.97;;;18.99;83.10
76766;BME280;65707;52.362;6.588;2023-07-29T02:49:35;100639.63;;;19.03;83.00
76766;BME280;65707;52.362;6.588;2023-07-29T02:52:03;100643.56;;;19.07;83.14
76766;BME280;65707;52.362;6.588;2023-07-29T02:54:30;100646.06;;;19.08;83.02
76766;BME280;65707;52.362;6.588;2023-07-29T02:56:57;100649.09;;;19.00;82.92
76766;BME280;65707;52.362;6.588;2023-07-29T02:59:24;100641.25;;;18.92;83.38
76766;BME280;65707;52.362;6.588;2023-07-29T03:01:50;100645.59;;;19.11;82.86
76766;BME280;65707;52.362;6.588;2023-07-29T03:04:18;100639.47;;;19.16;82.73
76766;BME280;65707;52.362;6.588;2023-07-29T03:06:46;100647.25;;;19.12;83.09
76766;BME280;65707;52.362;6.588;2023-07-29T03:09:13;100650.50;;;19.21;83.05
76766;BME280;65707;52.362;6.588;2023-07-29T03:11:40;100652.25;;;19.15;82.61
76766;BME280;65707;52.362;6.588;2023-07-29T03:14:07;100652.16;;;19.22;82.53
76766;BME280;65707;52.362;6.588;2023-07-29T03:16:34;100641.91;;;19.06;82.57
76766;BME280;65707;52.362;6.588;2023-07-29T03:19:00;100638.94;;;19.07;83.19
76766;BME280;65707;52.362;6.588;2023-07-29T03:21:27;100638.63;;;19.15;82.49
76766;BME280;65707;52.362;6.588;2023-07-29T03:23:56;100639.47;;;19.16;82.15
76766;BME280;65707;52.362;6.588;2023-07-29T03:26:22;100641.13;;;19.17;82.33
76766;BME280;65707;52.362;6.588;2023-07-29T03:28:49;100639.31;;;19.11;82.11
76766;BME280;65707;52.362;6.588;2023-07-29T03:31:16;100637.06;;;19.08;82.39
76766;BME280;65707;52.362;6.588;2023-07-29T03:33:43;100631.47;;;19.03;82.94
76766;BME280;65707;52.362;6.588;2023-07-29T03:36:09;100634.97;;;19.10;82.62
76766;BME280;65707;52.362;6.588;2023-07-29T03:38:36;100637.59;;;19.16;82.33
76766;BME280;65707;52.362;6.588;2023-07-29T03:41:06;100631.78;;;19.13;82.04
76766;BME280;65707;52.362;6.588;2023-07-29T03:43:33;100617.94;;;19.14;82.13
76766;BME280;65707;52.362;6.588;2023-07-29T03:46:00;100620.81;;;19.19;81.66
76766;BME280;65707;52.362;6.588;2023-07-29T03:48:27;100614.91;;;19.22;81.56
76766;BME280;65707;52.362;6.588;2023-07-29T03:50:54;100619.50;;;19.22;81.70
76766;BME280;65707;52.362;6.588;2023-07-29T03:53:21;100619.28;;;19.23;81.46
76766;BME280;65707;52.362;6.588;2023-07-29T03:55:48;100620.56;;;19.21;81.60
76766;BME280;65707;52.362;6.588;2023-07-29T03:58:16;100619.03;;;19.25;81.94
76766;BME280;65707;52.362;6.588;2023-07-29T04:00:43;100620.34;;;19.22;81.57
76766;BME280;65707;52.362;6.588;2023-07-29T04:03:10;100620.75;;;19.08;81.06
76766;BME280;65707;52.362;6.588;2023-07-29T04:05:37;100625.88;;;19.16;81.05
76766;BME280;65707;52.362;6.588;2023-07-29T04:08:04;100622.72;;;19.01;81.44
76766;BME280;65707;52.362;6.588;2023-07-29T04:10:31;100619.69;;;19.09;80.97
76766;BME280;65707;52.362;6.588;2023-07-29T04:12:57;100617.06;;;19.02;81.49
76766;BME280;65707;52.362;6.588;2023-07-29T04:15:26;100616.84;;;19.04;81.51
76766;BME280;65707;52.362;6.588;2023-07-29T04:17:52;100612.22;;;19.04;81.51
76766;BME280;65707;52.362;6.588;2023-07-29T04:20:19;100618.28;;;18.88;81.83
76766;BME280;65707;52.362;6.588;2023-07-29T04:22:46;100613.88;;;18.87;82.01
76766;BME280;65707;52.362;6.588;2023-07-29T04:25:13;100611.09;;;18.94;81.72
76766;BME280;65707;52.362;6.588;2023-07-29T04:27:40;100608.59;;;18.92;81.76
76766;BME280;65707;52.362;6.588;2023-07-29T04:30:07;100610.72;;;18.90;82.15
76766;BME280;65707;52.362;6.588;2023-07-29T04:32:36;100611.09;;;18.94;82.24
76766;BME280;65707;52.362;6.588;2023-07-29T04:35:03;100610.47;;;18.92;81.59
76766;BME280;65707;52.362;6.588;2023-07-29T04:37:31;100612.28;;;18.98;81.47
76766;BME280;65707;52.362;6.588;2023-07-29T04:39:57;100613.34;;;18.97;82.12
76766;BME280;65707;52.362;6.588;2023-07-29T04:42:24;100605.81;;;18.81;82.43
76766;BME280;65707;52.362;6.588;2023-07-29T04:44:51;100611.56;;;18.91;82.09
76766;BME280;65707;52.362;6.588;2023-07-29T04:47:17;100611.47;;;18.97;81.81
76766;BME280;65707;52.362;6.588;2023-07-29T04:49:46;100610.78;;;19.02;81.54
76766;BME280;65707;52.362;6.588;2023-07-29T04:52:12;100603.00;;;19.05;81.74
76766;BME280;65707;52.362;6.588;2023-07-29T04:54:40;100611.66;;;19.14;81.21
76766;BME280;65707;52.362;6.588;2023-07-29T04:57:07;100612.44;;;19.03;81.65
76766;BME280;65707;52.362;6.588;2023-07-29T04:59:33;100605.84;;;19.10;81.67
76766;BME280;65707;52.362;6.588;2023-07-29T05:02:00;100608.38;;;19.12;81.74
76766;BME280;65707;52.362;6.588;2023-07-29T05:04:27;100615.16;;;19.03;81.83
76766;BME280;65707;52.362;6.588;2023-07-29T05:06:55;100605.50;;;19.07;81.67
76766;BME280;65707;52.362;6.588;2023-07-29T05:09:22;100606.88;;;19.27;81.31
76766;BME280;65707;52.362;6.588;2023-07-29T05:11:49;100607.25;;;19.31;81.12
76766;BME280;65707;52.362;6.588;2023-07-29T05:14:17;100596.84;;;19.28;81.57
76766;BME280;65707;52.362;6.588;2023-07-29T05:16:44;100590.19;;;19.24;81.31
76766;BME280;65707;52.362;6.588;2023-07-29T05:19:11;100592.28;;;19.40;80.75
76766;BME280;65707;52.362;6.588;2023-07-29T05:21:38;100594.28;;;19.33;80.89
76766;BME280;65707;52.362;6.588;2023-07-29T05:24:07;100586.09;;;19.33;80.78
76766;BME280;65707;52.362;6.588;2023-07-29T05:26:33;100590.53;;;19.45;80.49
76766;BME280;65707;52.362;6.588;2023-07-29T05:29:00;100601.19;;;19.47;80.53
76766;BME280;65707;52.362;6.588;2023-07-29T05:31:27;100604.88;;;19.52;79.95
76766;BME280;65707;52.362;6.588;2023-07-29T05:33:54;100614.22;;;19.56;79.82
76766;BME280;65707;52.362;6.588;2023-07-29T05:36:20;100628.53;;;19.52;80.04
76766;BME280;65707;52.362;6.588;2023-07-29T05:38:47;100642.38;;;19.50;79.75
76766;BME280;65707;52.362;6.588;2023-07-29T05:41:15;100635.41;;;19.54;79.94
76766;BME280;65707;52.362;6.588;2023-07-29T05:43:42;100636.69;;;19.52;80.37
76766;BME280;65707;52.362;6.588;2023-07-29T05:46:10;100647.59;;;19.52;80.50
76766;BME280;65707;52.362;6.588;2023-07-29T05:48:37;100647.22;;;19.48;80.43
76766;BME280;65707;52.362;6.588;2023-07-29T05:51:04;100653.88;;;19.52;80.13
76766;BME280;65707;52.362;6.588;2023-07-29T05:53:31;100646.66;;;19.58;79.70
76766;BME280;65707;52.362;6.588;2023-07-29T05:55:58;100650.16;;;19.47;80.07
76766;BME280;65707;52.362;6.588;2023-07-29T05:58:26;100657.47;;;19.64;79.91
76766;BME280;65707;52.362;6.588;2023-07-29T06:00:53;100658.88;;;19.67;79.83
76766;BME280;65707;52.362;6.588;2023-07-29T06:03:20;100657.38;;;19.71;78.94
76766;BME280;65707;52.362;6.588;2023-07-29T06:05:46;100649.53;;;19.63;79.04
76766;BME280;65707;52.362;6.588;2023-07-29T06:08:15;100638.91;;;19.73;78.51
76766;BME280;65707;52.362;6.588;2023-07-29T06:10:41;100640.94;;;19.77;78.26
76766;BME280;65707;52.362;6.588;2023-07-29T06:13:08;100649.56;;;19.86;77.82
76766;BME280;65707;52.362;6.588;2023-07-29T06:15:36;100641.78;;;19.89;77.59
76766;BME280;65707;52.362;6.588;2023-07-29T06:18:03;100638.22;;;19.89;77.81
76766;BME280;65707;52.362;6.588;2023-07-29T06:20:30;100641.91;;;20.06;77.03
76766;BME280;65707;52.362;6.588;2023-07-29T06:22:57;100660.53;;;20.09;76.29
76766;BME280;65707;52.362;6.588;2023-07-29T06:25:24;100663.59;;;20.13;76.49
76766;BME280;65707;52.362;6.588;2023-07-29T06:27:50;100666.78;;;20.10;75.82
76766;BME280;65707;52.362;6.588;2023-07-29T06:30:17;100669.22;;;20.18;75.67
76766;BME280;65707;52.362;6.588;2023-07-29T06:32:45;100667.88;;;20.09;76.28
76766;BME280;65707;52.362;6.588;2023-07-29T06:35:12;100671.69;;;20.08;76.05
76766;BME280;65707;52.362;6.588;2023-07-29T06:37:39;100672.94;;;20.05;76.10
76766;BME280;65707;52.362;6.588;2023-07-29T06:40:07;100679.53;;;20.27;75.66
76766;BME280;65707;52.362;6.588;2023-07-29T06:42:34;100670.19;;;20.23;75.18
76766;BME280;65707;52.362;6.588;2023-07-29T06:45:03;100667.47;;;20.23;74.64
76766;BME280;65707;52.362;6.588;2023-07-29T06:47:30;100670.38;;;20.10;74.91
76766;BME280;65707;52.362;6.588;2023-07-29T06:49:58;100668.72;;;20.09;74.74
76766;BME280;65707;52.362;6.588;2023-07-29T06:52:25;100672.47;;;20.08;74.69
76766;BME280;65707;52.362;6.588;2023-07-29T06:54:52;100660.16;;;20.06;75.10
76766;BME280;65707;52.362;6.588;2023-07-29T06:57:19;100670.56;;;19.97;75.35
76766;BME280;65707;52.362;6.588;2023-07-29T06:59:46;100671.53;;;20.02;74.84
76766;BME280;65707;52.362;6.588;2023-07-29T07:02:12;100662.53;;;20.02;74.77
76766;BME280;65707;52.362;6.588;2023-07-29T07:04:39;100671.53;;;20.02;74.61
76766;BME280;65707;52.362;6.588;2023-07-29T07:07:07;100670.94;;;20.00;74.37
76766;BME280;65707;52.362;6.588;2023-07-29T07:09:34;100662.28;;;20.03;75.02
76766;BME280;65707;52.362;6.588;2023-07-29T07:12:01;100659.75;;;20.20;74.02
76766;BME280;65707;52.362;6.588;2023-07-29T07:14:28;100669.47;;;20.28;73.55
76766;BME280;65707;52.362;6.588;2023-07-29T07:16:54;100662.97;;;20.40;73.96
76766;BME280;65707;52.362;6.588;2023-07-29T07:19:21;100661.78;;;20.59;72.30
76766;BME280;65707;52.362;6.588;2023-07-29T07:21:48;100674.81;;;20.57;71.97
76766;BME280;65707;52.362;6.588;2023-07-29T07:24:16;100662.59;;;20.60;71.97
76766;BME280;65707;52.362;6.588;2023-07-29T07:26:43;100656.53;;;20.69;71.60
76766;BME280;65707;52.362;6.588;2023-07-29T07:29:09;100655.97;;;20.67;72.01
76766;BME280;65707;52.362;6.588;2023-07-29T07:31:36;100663.19;;;20.73;71.03
76766;BME280;65707;52.362;6.588;2023-07-29T07:34:03;100661.03;;;20.75;70.86
76766;BME280;65707;52.362;6.588;2023-07-29T07:36:30;100668.53;;;20.68;71.20
76766;BME280;65707;52.362;6.588;2023-07-29T07:38:57;100666.41;;;20.59;72.02
76766;BME280;65707;52.362;6.588;2023-07-29T07:41:25;100664.16;;;20.67;72.31
76766;BME280;65707;52.362;6.588;2023-07-29T07:43:52;100669.94;;;20.71;72.23
76766;BME280;65707;52.362;6.588;2023-07-29T07:46:18;100662.47;;;20.78;71.45
76766;BME280;65707;52.362;6.588;2023-07-29T07:48:45;100661.03;;;20.87;72.20
76766;BME280;65707;52.362;6.588;2023-07-29T07:51:12;100654.63;;;21.04;70.89
76766;BME280;65707;52.362;6.588;2023-07-29T07:53:39;100658.75;;;20.95;71.48
76766;BME280;65707;52.362;6.588;2023-07-29T07:56:07;100662.31;;;21.07;71.39
76766;BME280;65707;52.362;6.588;2023-07-29T07:58:35;100674.50;;;21.16;69.81
76766;BME280;65707;52.362;6.588;2023-07-29T08:01:02;100676.06;;;21.12;70.49
76766;BME280;65707;52.362;6.588;2023-07-29T08:03:30;100676.38;;;21.27;69.20
76766;BME280;65707;52.362;6.588;2023-07-29T08:05:57;100675.31;;;21.28;69.83
76766;BME280;65707;52.362;6.588;2023-07-29T08:08:24;100673.78;;;21.49;70.18
76766;BME280;65707;52.362;6.588;2023-07-29T08:10:52;100675.59;;;21.72;68.85
76766;BME280;65707;52.362;6.588;2023-07-29T08:13:19;100670.38;;;21.82;67.00
76766;BME280;65707;52.362;6.588;2023-07-29T08:15:48;100671.66;;;21.79;68.43
76766;BME280;65707;52.362;6.588;2023-07-29T08:18:16;100667.41;;;22.00;67.70
76766;BME280;65707;52.362;6.588;2023-07-29T08:20:51;100666.34;;;22.17;65.95
76766;BME280;65707;52.362;6.588;2023-07-29T08:23:20;100671.78;;;22.34;65.98
76766;BME280;65707;52.362;6.588;2023-07-29T08:25:51;100674.13;;;22.58;65.00
76766;BME280;65707;52.362;6.588;2023-07-29T08:28:19;100658.69;;;22.69;64.51
76766;BME280;65707;52.362;6.588;2023-07-29T08:30:48;100660.44;;;22.97;63.11
76766;BME280;65707;52.362;6.588;2023-07-29T08:33:15;100656.19;;;23.27;62.00
76766;BME280;65707;52.362;6.588;2023-07-29T08:35:42;100655.38;;;23.53;63.23
76766;BME280;65707;52.362;6.588;2023-07-29T08:38:08;100644.66;;;23.73;60.80
76766;BME280;65707;52.362;6.588;2023-07-29T08:40:38;100655.91;;;23.50;61.77
76766;BME280;65707;52.362;6.588;2023-07-29T08:43:09;100651.66;;;23.38;62.12
76766;BME280;65707;52.362;6.588;2023-07-29T08:45:38;100658.13;;;23.53;62.14
76766;BME280;65707;52.362;6.588;2023-07-29T08:48:08;100649.44;;;23.35;61.57
76766;BME280;65707;52.362;6.588;2023-07-29T08:50:37;100643.63;;;23.10;61.67
76766;BME280;65707;52.362;6.588;2023-07-29T08:53:04;100639.38;;;23.40;61.09
76766;BME280;65707;52.362;6.588;2023-07-29T08:55:31;100639.78;;;23.80;61.06
76766;BME280;65707;52.362;6.588;2023-07-29T08:57:59;100627.44;;;24.46;59.87
76766;BME280;65707;52.362;6.588;2023-07-29T09:00:27;100613.56;;;24.63;58.07
76766;BME280;65707;52.362;6.588;2023-07-29T09:02:54;100626.81;;;24.71;57.68
76766;BME280;65707;52.362;6.588;2023-07-29T09:05:24;100627.44;;;24.46;57.71
76766;BME280;65707;52.362;6.588;2023-07-29T09:07:51;100630.22;;;24.51;59.28
76766;BME280;65707;52.362;6.588;2023-07-29T09:10:22;100619.56;;;25.06;55.19
76766;BME280;65707;52.362;6.588;2023-07-29T09:12:53;100628.91;;;24.59;55.97
76766;BME280;65707;52.362;6.588;2023-07-29T09:15:27;100633.34;;;24.23;57.07
76766;BME280;65707;52.362;6.588;2023-07-29T09:17:56;100639.25;;;24.83;56.74
76766;BME280;65707;52.362;6.588;2023-07-29T09:20:25;100630.56;;;25.06;56.66
76766;BME280;65707;52.362;6.588;2023-07-29T09:22:54;100637.06;;;25.57;55.54
76766;BME280;65707;52.362;6.588;2023-07-29T09:25:24;100630.91;;;25.25;55.48
76766;BME280;65707;52.362;6.588;2023-07-29T09:27:52;100650.38;;;24.67;57.62
76766;BME280;65707;52.362;6.588;2023-07-29T09:30:19;100659.06;;;24.54;57.82
76766;BME280;65707;52.362;6.588;2023-07-29T09:32:45;100656.69;;;24.25;57.56
76766;BME280;65707;52.362;6.588;2023-07-29T09:35:13;100659.34;;;24.15;58.49
76766;BME280;65707;52.362;6.588;2023-07-29T09:37:41;100659.84;;;24.12;58.60
76766;BME280;65707;52.362;6.588;2023-07-29T09:40:14;100667.31;;;23.90;59.69
76766;BME280;65707;52.362;6.588;2023-07-29T09:42:48;100668.09;;;23.59;59.97
76766;BME280;65707;52.362;6.588;2023-07-29T09:45:19;100670.00;;;23.59;59.90
76766;BME280;65707;52.362;6.588;2023-07-29T09:47:47;100664.72;;;24.05;59.87
76766;BME280;65707;52.362;6.588;2023-07-29T09:50:15;100658.63;;;24.67;57.38
76766;BME280;65707;52.362;6.588;2023-07-29T09:52:44;100667.56;;;23.62;58.67
76766;BME280;65707;52.362;6.588;2023-07-29T09:55:17;100679.53;;;23.30;60.51
76766;BME280;65707;52.362;6.588;2023-07-29T09:57:45;100682.28;;;23.13;61.91
76766;BME280;65707;52.362;6.588;2023-07-29T10:00:12;100680.50;;;23.02;61.38
76766;BME280;65707;52.362;6.588;2023-07-29T10:02:41;100689.03;;;22.67;63.06
76766;BME280;65707;52.362;6.588;2023-07-29T10:05:10;100682.72;;;22.83;62.79
76766;BME280;65707;52.362;6.588;2023-07-29T10:07:38;100672.53;;;23.22;62.15
76766;BME280;65707;52.362;6.588;2023-07-29T10:10:07;100639.75;;;24.02;59.01
76766;BME280;65707;52.362;6.588;2023-07-29T10:12:35;100642.88;;;24.99;57.98
76766;BME280;65707;52.362;6.588;2023-07-29T10:15:03;100631.00;;;25.50;55.03
76766;BME280;65707;52.362;6.588;2023-07-29T10:17:34;100637.31;;;25.50;56.05
76766;BME280;65707;52.362;6.588;2023-07-29T10:20:04;100641.63;;;25.21;54.47
76766;BME280;65707;52.362;6.588;2023-07-29T10:22:33;100638.78;;;25.01;55.27
76766;BME280;65707;52.362;6.588;2023-07-29T10:25:04;100644.78;;;24.93;55.69
76766;BME280;65707;52.362;6.588;2023-07-29T10:27:41;100639.72;;;24.70;56.06
76766;BME280;65707;52.362;6.588;2023-07-29T10:30:11;100654.94;;;24.51;56.63
76766;BME280;65707;52.362;6.588;2023-07-29T10:32:41;100655.09;;;24.34;58.35
76766;BME280;65707;52.362;6.588;2023-07-29T10:35:10;100647.19;;;24.38;58.22
76766;BME280;65707;52.362;6.588;2023-07-29T10:37:38;100649.41;;;24.09;57.77
76766;BME280;65707;52.362;6.588;2023-07-29T10:40:09;100659.19;;;24.00;59.74
76766;BME280;65707;52.362;6.588;2023-07-29T10:42:37;100656.81;;;24.09;59.29
76766;BME280;65707;52.362;6.588;2023-07-29T10:45:18;100653.78;;;24.42;58.30
76766;BME280;65707;52.362;6.588;2023-07-29T10:47:46;100645.88;;;24.51;56.41
76766;BME280;65707;52.362;6.588;2023-07-29T10:50:18;100657.19;;;24.22;58.26
76766;BME280;65707;52.362;6.588;2023-07-29T10:52:50;100656.22;;;24.07;57.69
76766;BME280;65707;52.362;6.588;2023-07-29T10:55:27;100656.28;;;23.85;59.26
76766;BME280;65707;52.362;6.588;2023-07-29T10:58:12;100656.94;;;23.71;59.54
76766;BME280;65707;52.362;6.588;2023-07-29T11:00:41;100653.34;;;23.65;59.49
76766;BME280;65707;52.362;6.588;2023-07-29T11:03:08;100657.41;;;23.63;59.88
76766;BME280;65707;52.362;6.588;2023-07-29T11:05:47;100648.72;;;23.66;58.80
76766;BME280;65707;52.362;6.588;2023-07-29T11:08:16;100656.16;;;23.70;59.28
76766;BME280;65707;52.362;6.588;2023-07-29T11:11:06;100648.47;;;23.99;58.88
76766;BME280;65707;52.362;6.588;2023-07-29T11:13:35;100650.47;;;24.03;58.84
76766;BME280;65707;52.362;6.588;2023-07-29T11:16:04;100647.97;;;24.38;58.30
76766;BME280;65707;52.362;6.588;2023-07-29T11:18:33;100639.88;;;24.54;57.28
76766;BME280;65707;52.362;6.588;2023-07-29T11:21:01;100645.84;;;24.46;57.47
76766;BME280;65707;52.362;6.588;2023-07-29T11:23:31;100650.31;;;24.20;57.77
76766;BME280;65707;52.362;6.588;2023-07-29T11:26:00;100652.59;;;23.96;57.22
76766;BME280;65707;52.362;6.588;2023-07-29T11:28:30;100645.78;;;23.77;57.64
76766;BME280;65707;52.362;6.588;2023-07-29T11:30:57;100653.69;;;23.74;58.04
76766;BME280;65707;52.362;6.588;2023-07-29T11:33:25;100649.19;;;23.63;58.24
76766;BME280;65707;52.362;6.588;2023-07-29T11:35:53;100667.97;;;23.49;58.88
76766;BME280;65707;52.362;6.588;2023-07-29T11:38:21;100694.78;;;22.87;64.53
76766;BME280;65707;52.362;6.588;2023-07-29T11:40:56;100697.09;;;21.80;69.49
76766;BME280;65707;52.362;6.588;2023-07-29T11:43:25;100694.75;;;21.60;72.02
76766;BME280;65707;52.362;6.588;2023-07-29T11:45:54;100690.22;;;21.77;71.36
76766;BME280;65707;52.362;6.588;2023-07-29T11:48:28;100692.63;;;21.90;72.91
76766;BME280;65707;52.362;6.588;2023-07-29T11:50:57;100693.03;;;22.10;73.63
76766;BME280;65707;52.362;6.588;2023-07-29T11:53:27;100687.47;;;22.22;70.91
76766;BME280;65707;52.362;6.588;2023-07-29T11:55:55;100687.03;;;22.30;71.22
76766;BME280;65707;52.362;6.588;2023-07-29T11:58:23;100680.44;;;22.59;66.72
76766;BME280;65707;52.362;6.588;2023-07-29T12:00:51;100672.13;;;22.70;66.19
76766;BME280;65707;52.362;6.588;2023-07-29T12:03:19;100670.56;;;22.96;64.39
76766;BME280;65707;52.362;6.588;2023-07-29T12:05:46;100665.53;;;23.10;64.65
76766;BME280;65707;52.362;6.588;2023-07-29T12:08:13;100665.41;;;23.21;64.05
76766;BME280;65707;52.362;6.588;2023-07-29T12:10:41;100649.16;;;23.58;63.35
76766;BME280;65707;52.362;6.588;2023-07-29T12:13:08;100638.38;;;24.36;61.21
76766;BME280;65707;52.362;6.588;2023-07-29T12:15:38;100636.22;;;24.85;59.81
76766;BME280;65707;52.362;6.588;2023-07-29T12:18:05;100640.38;;;24.92;58.97
76766;BME280;65707;52.362;6.588;2023-07-29T12:20:34;100624.19;;;25.87;58.12
76766;BME280;65707;52.362;6.588;2023-07-29T12:23:01;100630.22;;;26.65;55.89
76766;BME280;65707;52.362;6.588;2023-07-29T12:25:28;100615.06;;;26.72;51.88
76766;BME280;65707;52.362;6.588;2023-07-29T12:27:56;100624.75;;;26.45;53.57
76766;BME280;65707;52.362;6.588;2023-07-29T12:30:23;100624.22;;;26.33;52.79
76766;BME280;65707;52.362;6.588;2023-07-29T12:32:51;100633.53;;;25.81;54.20
76766;BME280;65707;52.362;6.588;2023-07-29T12:35:18;100641.47;;;25.48;55.86
76766;BME280;65707;52.362;6.588;2023-07-29T12:37:46;100648.59;;;25.49;55.94
76766;BME280;65707;52.362;6.588;2023-07-29T12:40:22;100656.59;;;25.60;56.07
76766;BME280;65707;52.362;6.588;2023-07-29T12:42:50;100652.84;;;25.15;55.36
76766;BME280;65707;52.362;6.588;2023-07-29T12:45:17;100669.91;;;24.70;57.49
76766;BME280;65707;52.362;6.588;2023-07-29T12:47:45;100670.53;;;24.46;57.95
76766;BME280;65707;52.362;6.588;2023-07-29T12:50:12;100671.59;;;24.39;58.73
76766;BME280;65707;52.362;6.588;2023-07-29T12:52:38;100678.38;;;24.27;59.10
76766;BME280;65707;52.362;6.588;2023-07-29T12:55:07;100682.31;;;24.09;61.29